sensor_id;sensor_type;location;lat;lon;timestamp;pressure;altitude;pressure_sealevel;temperature;humidity
26087;BME280;13851;43.434;28.338;2023-04-06T00:00:59;99387.75;;;6.12;100.00
26087;BME280;13851;43.434;28.338;2023-04-06T00:03:24;99346.84;;;5.80;100.00
26087;BME280;13851;43.434;28.338;2023-04-06T00:05:51;99389.56;;;6.04;100.00
26087;BME280;13851;43.434;28.338;2023-04-06T00:08:17;99269.31;;;5.17;100.00
26087;BME280;13851;43.434;28.338;2023-04-06T00:10:42;99368.50;;;5.63;100.00
26087;BME280;13851;43.434;28.338;2023-04-06T00:13:08;99340.78;;;5.26;100.00
26087;BME280;13851;43.434;28.338;2023-04-06T00:15:34;99387.78;;;5.52;100.00
26087;BME280;13851;43.434;28.338;2023-04-06T00:18:00;99356.97;;;5.69;100.00
26087;BME280;13851;43.434;28.338;2023-04-06T00:20:26;99284.50;;;5.36;100.00
26087;BME280;13851;43.434;28.338;2023-04-06T00:22:51;99293.63;;;5.69;100.00
26087;BME280;13851;43.434;28.338;2023-04-06T00:25:17;99345.94;;;6.05;100.00
26087;BME280;13851;43.434;28.338;2023-04-06T00:27:42;99020.91;;;4.12;100.00
26087;BME280;13851;43.434;28.338;2023-04-06T00:30:08;99380.28;;;6.14;100.00
26087;BME280;13851;43.434;28.338;2023-04-06T00:32:34;99364.81;;;6.23;100.00
26087;BME280;13851;43.434;28.338;2023-04-06T00:35:04;99062.91;;;4.42;100.00
26087;BME280;13851;43.434;28.338;2023-04-06T00:37:30;99393.78;;;6.40;100.00
26087;BME280;13851;43.434;28.338;2023-04-06T00:39:56;99336.81;;;5.80;100.00
26087;BME280;13851;43.434;28.338;2023-04-06T00:42:22;99398.47;;;6.22;100.00
26087;BME280;13851;43.434;28.338;2023-04-06T00:44:55;99360.19;;;6.07;100.00
26087;BME280;13851;43.434;28.338;2023-04-06T00:47:22;99347.56;;;5.90;100.00
26087;BME280;13851;43.434;28.338;2023-04-06T00:49:51;99361.53;;;5.95;100.00
26087;BME280;13851;43.434;28.338;2023-04-06T00:52:17;99397.66;;;6.30;100.00
26087;BME280;13851;43.434;28.338;2023-04-06T00:54:43;99394.19;;;6.11;100.00
26087;BME280;13851;43.434;28.338;2023-04-06T00:57:10;99091.97;;;3.98;100.00
26087;BME280;13851;43.434;28.338;2023-04-06T00:59:36;99333.78;;;5.49;100.00
26087;BME280;13851;43.434;28.338;2023-04-06T01:02:02;99399.59;;;6.03;100.00
26087;BME280;13851;43.434;28.338;2023-04-06T01:04:27;99460.13;;;6.05;100.00
26087;BME280;13851;43.434;28.338;2023-04-06T01:06:53;99389.66;;;5.86;100.00
26087;BME280;13851;43.434;28.338;2023-04-06T01:09:18;99336.22;;;5.60;100.00
26087;BME280;13851;43.434;28.338;2023-04-06T01:11:44;99102.38;;;4.36;100.00
26087;BME280;13851;43.434;28.338;2023-04-06T01:14:10;99419.16;;;6.07;100.00
26087;BME280;13851;43.434;28.338;2023-04-06T01:16:36;99352.03;;;6.07;100.00
26087;BME280;13851;43.434;28.338;2023-04-06T01:19:08;99405.00;;;6.45;100.00
26087;BME280;13851;43.434;28.338;2023-04-06T01:21:33;99416.53;;;6.31;100.00
26087;BME280;13851;43.434;28.338;2023-04-06T01:23:59;99018.34;;;4.02;100.00
26087;BME280;13851;43.434;28.338;2023-04-06T01:26:25;99396.25;;;5.83;100.00
26087;BME280;13851;43.434;28.338;2023-04-06T01:28:51;99091.00;;;4.33;100.00
26087;BME280;13851;43.434;28.338;2023-04-06T01:31:17;99391.84;;;6.16;100.00
26087;BME280;13851;43.434;28.338;2023-04-06T01:33:43;99409.88;;;6.34;100.00
26087;BME280;13851;43.434;28.338;2023-04-06T01:36:08;99340.19;;;5.82;100.00
26087;BME280;13851;43.434;28.338;2023-04-06T01:38:34;99377.53;;;6.06;100.00
26087;BME280;13851;43.434;28.338;2023-04-06T01:41:00;99406.81;;;6.20;100.00
26087;BME280;13851;43.434;28.338;2023-04-06T01:43:26;99396.53;;;5.98;100.00
26087;BME280;13851;43.434;28.338;2023-04-06T01:45:51;99406.56;;;5.97;100.00
26087;BME280;13851;43.434;28.338;2023-04-06T01:48:19;99454.28;;;5.92;100.00
26087;BME280;13851;43.434;28.338;2023-04-06T01:50:47;99088.78;;;4.02;100.00
26087;BME280;13851;43.434;28.338;2023-04-06T01:53:12;99359.03;;;5.76;100.00
26087;BME280;13851;43.434;28.338;2023-04-06T01:55:38;99402.44;;;5.93;100.00
26087;BME280;13851;43.434;28.338;2023-04-06T01:58:04;99407.50;;;5.88;100.00
26087;BME280;13851;43.434;28.338;2023-04-06T02:00:29;99375.63;;;5.30;100.00
26087;BME280;13851;43.434;28.338;2023-04-06T02:02:55;99400.53;;;5.86;100.00
26087;BME280;13851;43.434;28.338;2023-04-06T02:05:21;99351.84;;;5.58;100.00
26087;BME280;13851;43.434;28.338;2023-04-06T02:07:46;99299.88;;;5.19;100.00
26087;BME280;13851;43.434;28.338;2023-04-06T02:10:13;99401.44;;;5.60;100.00
26087;BME280;13851;43.434;28.338;2023-04-06T02:12:39;99420.72;;;5.49;100.00
26087;BME280;13851;43.434;28.338;2023-04-06T02:15:05;99411.34;;;5.69;100.00
26087;BME280;13851;43.434;28.338;2023-04-06T02:17:33;99387.16;;;5.58;100.00
26087;BME280;13851;43.434;28.338;2023-04-06T02:19:59;99334.56;;;5.33;100.00
26087;BME280;13851;43.434;28.338;2023-04-06T02:22:24;99356.88;;;5.45;100.00
26087;BME280;13851;43.434;28.338;2023-04-06T02:24:50;99353.66;;;5.50;100.00
26087;BME280;13851;43.434;28.338;2023-04-06T02:27:15;99308.56;;;5.31;100.00
26087;BME280;13851;43.434;28.338;2023-04-06T02:29:41;99309.53;;;5.21;100.00
26087;BME280;13851;43.434;28.338;2023-04-06T02:32:07;99065.06;;;3.78;100.00
26087;BME280;13851;43.434;28.338;2023-04-06T02:34:32;99358.31;;;5.65;100.00
26087;BME280;13851;43.434;28.338;2023-04-06T02:36:58;99355.03;;;5.54;100.00
26087;BME280;13851;43.434;28.338;2023-04-06T02:39:24;99347.22;;;5.51;100.00
26087;BME280;13851;43.434;28.338;2023-04-06T02:41:49;99287.84;;;4.95;100.00
26087;BME280;13851;43.434;28.338;2023-04-06T02:44:15;99386.31;;;5.32;100.00
26087;BME280;13851;43.434;28.338;2023-04-06T02:46:40;98722.84;;;1.27;100.00
26087;BME280;13851;43.434;28.338;2023-04-06T02:49:06;99372.69;;;5.24;100.00
26087;BME280;13851;43.434;28.338;2023-04-06T02:51:32;99358.78;;;5.27;100.00
26087;BME280;13851;43.434;28.338;2023-04-06T02:53:58;99375.78;;;5.29;100.00
26087;BME280;13851;43.434;28.338;2023-04-06T02:56:24;99336.31;;;5.16;100.00
26087;BME280;13851;43.434;28.338;2023-04-06T02:58:50;99324.47;;;4.91;100.00
26087;BME280;13851;43.434;28.338;2023-04-06T03:01:15;99493.25;;;4.95;100.00
26087;BME280;13851;43.434;28.338;2023-04-06T03:03:41;99338.28;;;5.06;100.00
26087;BME280;13851;43.434;28.338;2023-04-06T03:06:07;99373.66;;;5.14;100.00
26087;BME280;13851;43.434;28.338;2023-04-06T03:08:33;99367.75;;;4.75;100.00
26087;BME280;13851;43.434;28.338;2023-04-06T03:10:58;99357.25;;;4.98;100.00
26087;BME280;13851;43.434;28.338;2023-04-06T03:13:24;99344.91;;;5.30;100.00
26087;BME280;13851;43.434;28.338;2023-04-06T03:15:50;99321.56;;;5.45;100.00
26087;BME280;13851;43.434;28.338;2023-04-06T03:18:21;99301.56;;;5.54;100.00
26087;BME280;13851;43.434;28.338;2023-04-06T03:20:47;99419.19;;;5.81;100.00
26087;BME280;13851;43.434;28.338;2023-04-06T03:23:13;99377.75;;;5.79;100.00
26087;BME280;13851;43.434;28.338;2023-04-06T03:25:38;99363.94;;;6.06;100.00
26087;BME280;13851;43.434;28.338;2023-04-06T03:28:07;99258.19;;;5.36;100.00
26087;BME280;13851;43.434;28.338;2023-04-06T03:30:35;99430.22;;;6.05;100.00
26087;BME280;13851;43.434;28.338;2023-04-06T03:33:01;99385.50;;;5.65;100.00
26087;BME280;13851;43.434;28.338;2023-04-06T03:35:26;99340.38;;;5.81;100.00
26087;BME280;13851;43.434;28.338;2023-04-06T03:37:52;99432.72;;;5.72;100.00
26087;BME280;13851;43.434;28.338;2023-04-06T03:40:17;99022.75;;;3.51;100.00
26087;BME280;13851;43.434;28.338;2023-04-06T03:42:45;99429.13;;;5.64;100.00
26087;BME280;13851;43.434;28.338;2023-04-06T03:45:11;99397.88;;;5.34;100.00
26087;BME280;13851;43.434;28.338;2023-04-06T03:47:38;98956.66;;;2.92;100.00
26087;BME280;13851;43.434;28.338;2023-04-06T03:50:04;99393.97;;;5.36;100.00
26087;BME280;13851;43.434;28.338;2023-04-06T03:52:29;99375.63;;;5.64;100.00
26087;BME280;13851;43.434;28.338;2023-04-06T03:54:55;99404.31;;;5.59;100.00
26087;BME280;13851;43.434;28.338;2023-04-06T03:57:23;99343.69;;;5.32;100.00
26087;BME280;13851;43.434;28.338;2023-04-06T03:59:49;99392.09;;;5.37;100.00
26087;BME280;13851;43.434;28.338;2023-04-06T04:02:14;99004.81;;;3.50;100.00
26087;BME280;13851;43.434;28.338;2023-04-06T04:04:41;99325.56;;;5.33;100.00
26087;BME280;13851;43.434;28.338;2023-04-06T04:07:06;98998.66;;;3.22;100.00
26087;BME280;13851;43.434;28.338;2023-04-06T04:09:32;99391.13;;;5.38;100.00
26087;BME280;13851;43.434;28.338;2023-04-06T04:11:57;99327.03;;;4.93;100.00
26087;BME280;13851;43.434;28.338;2023-04-06T04:14:23;99387.22;;;5.14;100.00
26087;BME280;13851;43.434;28.338;2023-04-06T04:16:49;99410.91;;;5.04;100.00
26087;BME280;13851;43.434;28.338;2023-04-06T04:19:15;99313.28;;;4.68;100.00
26087;BME280;13851;43.434;28.338;2023-04-06T04:21:46;99362.28;;;5.45;100.00
26087;BME280;13851;43.434;28.338;2023-04-06T04:24:14;99361.22;;;5.72;100.00
26087;BME280;13851;43.434;28.338;2023-04-06T04:26:40;98960.06;;;3.38;100.00
26087;BME280;13851;43.434;28.338;2023-04-06T04:29:06;99326.03;;;5.62;100.00
26087;BME280;13851;43.434;28.338;2023-04-06T04:31:31;99387.91;;;5.68;100.00
26087;BME280;13851;43.434;28.338;2023-04-06T04:33:58;99332.78;;;5.50;100.00
26087;BME280;13851;43.434;28.338;2023-04-06T04:36:24;99308.94;;;5.36;100.00
26087;BME280;13851;43.434;28.338;2023-04-06T04:38:51;99023.28;;;3.37;100.00
26087;BME280;13851;43.434;28.338;2023-04-06T04:41:17;99345.81;;;5.12;100.00
26087;BME280;13851;43.434;28.338;2023-04-06T04:43:43;99310.03;;;4.91;100.00
26087;BME280;13851;43.434;28.338;2023-04-06T04:46:09;99122.22;;;3.67;100.00
26087;BME280;13851;43.434;28.338;2023-04-06T04:48:34;99330.13;;;4.80;100.00
26087;BME280;13851;43.434;28.338;2023-04-06T04:51:00;99354.66;;;5.14;100.00
26087;BME280;13851;43.434;28.338;2023-04-06T04:53:25;99352.03;;;5.31;100.00
26087;BME280;13851;43.434;28.338;2023-04-06T04:55:51;99341.28;;;5.21;100.00
26087;BME280;13851;43.434;28.338;2023-04-06T04:58:16;99301.03;;;4.90;100.00
26087;BME280;13851;43.434;28.338;2023-04-06T05:00:46;99360.88;;;5.07;100.00
26087;BME280;13851;43.434;28.338;2023-04-06T05:03:21;99366.41;;;4.97;100.00
26087;BME280;13851;43.434;28.338;2023-04-06T05:05:47;99331.31;;;4.78;100.00
26087;BME280;13851;43.434;28.338;2023-04-06T05:08:13;99296.94;;;4.60;100.00
26087;BME280;13851;43.434;28.338;2023-04-06T05:10:42;98964.75;;;2.56;100.00
26087;BME280;13851;43.434;28.338;2023-04-06T05:13:08;99349.47;;;4.77;100.00
26087;BME280;13851;43.434;28.338;2023-04-06T05:15:34;99390.03;;;4.61;100.00
26087;BME280;13851;43.434;28.338;2023-04-06T05:18:09;99318.56;;;4.52;100.00
26087;BME280;13851;43.434;28.338;2023-04-06T05:20:35;99366.66;;;4.86;100.00
26087;BME280;13851;43.434;28.338;2023-04-06T05:23:01;99367.34;;;4.88;100.00
26087;BME280;13851;43.434;28.338;2023-04-06T05:25:27;99284.50;;;4.32;100.00
26087;BME280;13851;43.434;28.338;2023-04-06T05:27:53;99326.88;;;4.51;100.00
26087;BME280;13851;43.434;28.338;2023-04-06T05:30:19;99351.00;;;4.80;100.00
26087;BME280;13851;43.434;28.338;2023-04-06T05:32:45;99293.53;;;4.58;100.00
26087;BME280;13851;43.434;28.338;2023-04-06T05:35:11;99311.91;;;4.47;100.00
26087;BME280;13851;43.434;28.338;2023-04-06T05:37:37;99372.78;;;4.88;100.00
26087;BME280;13851;43.434;28.338;2023-04-06T05:40:03;99315.78;;;4.44;100.00
26087;BME280;13851;43.434;28.338;2023-04-06T05:42:39;99385.88;;;4.92;100.00
26087;BME280;13851;43.434;28.338;2023-04-06T05:45:06;99406.66;;;5.02;100.00
26087;BME280;13851;43.434;28.338;2023-04-06T05:47:32;99338.63;;;4.77;100.00
26087;BME280;13851;43.434;28.338;2023-04-06T05:49:58;99388.44;;;4.94;100.00
26087;BME280;13851;43.434;28.338;2023-04-06T05:52:23;98975.25;;;2.59;100.00
26087;BME280;13851;43.434;28.338;2023-04-06T05:54:49;99365.97;;;4.84;100.00
26087;BME280;13851;43.434;28.338;2023-04-06T05:57:15;99131.13;;;3.59;100.00
26087;BME280;13851;43.434;28.338;2023-04-06T05:59:42;98996.84;;;2.87;100.00
26087;BME280;13851;43.434;28.338;2023-04-06T06:02:07;98982.31;;;2.88;100.00
26087;BME280;13851;43.434;28.338;2023-04-06T06:04:33;99389.00;;;5.24;100.00
26087;BME280;13851;43.434;28.338;2023-04-06T06:06:58;99406.53;;;5.11;100.00
26087;BME280;13851;43.434;28.338;2023-04-06T06:09:24;98939.56;;;2.74;100.00
26087;BME280;13851;43.434;28.338;2023-04-06T06:11:50;99307.38;;;4.99;100.00
26087;BME280;13851;43.434;28.338;2023-04-06T06:14:16;99236.25;;;4.61;100.00
26087;BME280;13851;43.434;28.338;2023-04-06T06:16:41;99323.97;;;4.96;100.00
26087;BME280;13851;43.434;28.338;2023-04-06T06:19:07;99374.31;;;5.42;100.00
26087;BME280;13851;43.434;28.338;2023-04-06T06:21:32;99400.56;;;5.60;100.00
26087;BME280;13851;43.434;28.338;2023-04-06T06:23:58;99397.72;;;5.35;100.00
26087;BME280;13851;43.434;28.338;2023-04-06T06:26:24;99396.22;;;5.41;100.00
26087;BME280;13851;43.434;28.338;2023-04-06T06:28:49;99386.88;;;5.69;100.00
26087;BME280;13851;43.434;28.338;2023-04-06T06:31:15;99385.00;;;5.70;100.00
26087;BME280;13851;43.434;28.338;2023-04-06T06:33:41;99315.63;;;5.50;100.00
26087;BME280;13851;43.434;28.338;2023-04-06T06:36:07;99409.66;;;5.77;100.00
26087;BME280;13851;43.434;28.338;2023-04-06T06:38:32;99344.72;;;5.65;100.00
26087;BME280;13851;43.434;28.338;2023-04-06T06:40:58;99400.75;;;5.92;100.00
26087;BME280;13851;43.434;28.338;2023-04-06T06:43:23;99037.47;;;3.75;100.00
26087;BME280;13851;43.434;28.338;2023-04-06T06:45:49;99312.44;;;5.54;100.00
26087;BME280;13851;43.434;28.338;2023-04-06T06:48:15;99359.94;;;5.84;100.00
26087;BME280;13851;43.434;28.338;2023-04-06T06:50:41;99401.34;;;6.12;100.00
26087;BME280;13851;43.434;28.338;2023-04-06T06:53:06;99264.28;;;5.30;100.00
26087;BME280;13851;43.434;28.338;2023-04-06T06:55:32;99369.38;;;6.06;100.00
26087;BME280;13851;43.434;28.338;2023-04-06T06:57:57;98809.94;;;2.72;100.00
26087;BME280;13851;43.434;28.338;2023-04-06T07:00:23;99384.72;;;6.23;100.00
26087;BME280;13851;43.434;28.338;2023-04-06T07:02:48;99373.03;;;5.89;100.00
26087;BME280;13851;43.434;28.338;2023-04-06T07:05:15;99067.63;;;4.32;100.00
26087;BME280;13851;43.434;28.338;2023-04-06T07:07:40;99373.81;;;6.15;100.00
26087;BME280;13851;43.434;28.338;2023-04-06T07:10:07;99355.97;;;6.05;100.00
26087;BME280;13851;43.434;28.338;2023-04-06T07:12:33;99356.72;;;5.89;100.00
26087;BME280;13851;43.434;28.338;2023-04-06T07:14:58;99025.25;;;3.97;100.00
26087;BME280;13851;43.434;28.338;2023-04-06T07:17:24;99398.03;;;6.35;100.00
26087;BME280;13851;43.434;28.338;2023-04-06T07:19:49;99401.38;;;6.29;100.00
26087;BME280;13851;43.434;28.338;2023-04-06T07:22:15;99273.28;;;5.81;100.00
26087;BME280;13851;43.434;28.338;2023-04-06T07:24:41;99377.25;;;6.34;100.00
26087;BME280;13851;43.434;28.338;2023-04-06T07:27:06;99403.63;;;6.49;100.00
26087;BME280;13851;43.434;28.338;2023-04-06T07:29:32;98966.16;;;4.00;100.00
26087;BME280;13851;43.434;28.338;2023-04-06T07:31:57;99390.06;;;6.66;100.00
26087;BME280;13851;43.434;28.338;2023-04-06T07:34:23;99023.63;;;4.54;100.00
26087;BME280;13851;43.434;28.338;2023-04-06T07:36:49;99405.56;;;6.90;100.00
26087;BME280;13851;43.434;28.338;2023-04-06T07:39:14;99384.28;;;6.85;100.00
26087;BME280;13851;43.434;28.338;2023-04-06T07:41:40;99313.00;;;6.57;100.00
26087;BME280;13851;43.434;28.338;2023-04-06T07:44:06;99389.19;;;7.06;100.00
26087;BME280;13851;43.434;28.338;2023-04-06T07:46:32;99402.09;;;7.45;100.00
26087;BME280;13851;43.434;28.338;2023-04-06T07:48:59;99329.28;;;7.14;100.00
26087;BME280;13851;43.434;28.338;2023-04-06T07:51:25;99200.63;;;6.32;100.00
26087;BME280;13851;43.434;28.338;2023-04-06T07:53:51;99331.16;;;7.22;100.00
26087;BME280;13851;43.434;28.338;2023-04-06T07:56:17;99389.53;;;7.91;100.00
26087;BME280;13851;43.434;28.338;2023-04-06T07:58:43;99377.69;;;8.07;100.00
26087;BME280;13851;43.434;28.338;2023-04-06T08:01:08;99088.53;;;6.53;100.00
26087;BME280;13851;43.434;28.338;2023-04-06T08:03:34;99340.44;;;7.91;100.00
26087;BME280;13851;43.434;28.338;2023-04-06T08:06:01;99413.09;;;8.54;100.00
26087;BME280;13851;43.434;28.338;2023-04-06T08:08:26;99367.31;;;8.33;100.00
26087;BME280;13851;43.434;28.338;2023-04-06T08:10:52;99412.34;;;8.38;100.00
26087;BME280;13851;43.434;28.338;2023-04-06T08:13:17;99417.78;;;8.46;100.00
26087;BME280;13851;43.434;28.338;2023-04-06T08:15:43;99315.72;;;7.93;100.00
26087;BME280;13851;43.434;28.338;2023-04-06T08:18:09;99330.81;;;8.03;100.00
26087;BME280;13851;43.434;28.338;2023-04-06T08:20:35;99093.16;;;6.92;100.00
26087;BME280;13851;43.434;28.338;2023-04-06T08:23:00;99417.88;;;9.21;100.00
26087;BME280;13851;43.434;28.338;2023-04-06T08:25:26;99141.31;;;7.53;100.00
26087;BME280;13851;43.434;28.338;2023-04-06T08:27:52;99194.13;;;7.52;100.00
26087;BME280;13851;43.434;28.338;2023-04-06T08:30:18;99310.50;;;7.83;100.00
26087;BME280;13851;43.434;28.338;2023-04-06T08:32:45;99357.41;;;8.41;100.00
26087;BME280;13851;43.434;28.338;2023-04-06T08:35:10;99421.69;;;8.97;100.00
26087;BME280;13851;43.434;28.338;2023-04-06T08:37:36;99427.03;;;8.91;100.00
26087;BME280;13851;43.434;28.338;2023-04-06T08:40:02;99436.06;;;9.14;100.00
26087;BME280;13851;43.434;28.338;2023-04-06T08:42:32;99428.91;;;9.13;100.00
26087;BME280;13851;43.434;28.338;2023-04-06T08:44:58;99430.91;;;9.19;100.00
26087;BME280;13851;43.434;28.338;2023-04-06T08:47:24;99376.69;;;9.08;100.00
26087;BME280;13851;43.434;28.338;2023-04-06T08:49:50;99215.72;;;8.08;100.00
26087;BME280;13851;43.434;28.338;2023-04-06T08:52:18;99427.75;;;9.45;100.00
26087;BME280;13851;43.434;28.338;2023-04-06T08:54:44;99429.50;;;9.76;100.00
26087;BME280;13851;43.434;28.338;2023-04-06T08:57:10;99367.69;;;9.22;100.00
26087;BME280;13851;43.434;28.338;2023-04-06T08:59:36;99430.69;;;9.44;100.00
26087;BME280;13851;43.434;28.338;2023-04-06T09:02:06;99035.69;;;7.55;100.00
26087;BME280;13851;43.434;28.338;2023-04-06T09:04:35;99097.69;;;7.76;100.00
26087;BME280;13851;43.434;28.338;2023-04-06T09:07:01;99427.44;;;9.63;100.00
26087;BME280;13851;43.434;28.338;2023-04-06T09:09:27;99427.31;;;9.71;100.00
26087;BME280;13851;43.434;28.338;2023-04-06T09:11:53;99419.31;;;9.99;100.00
26087;BME280;13851;43.434;28.338;2023-04-06T09:14:38;99358.63;;;9.36;100.00
26087;BME280;13851;43.434;28.338;2023-04-06T09:17:04;99421.09;;;9.77;100.00
26087;BME280;13851;43.434;28.338;2023-04-06T09:19:30;99320.66;;;9.42;100.00
26087;BME280;13851;43.434;28.338;2023-04-06T09:22:04;99419.59;;;10.19;100.00
26087;BME280;13851;43.434;28.338;2023-04-06T09:24:49;99062.81;;;7.49;100.00
26087;BME280;13851;43.434;28.338;2023-04-06T09:27:15;99082.19;;;7.77;100.00
26087;BME280;13851;43.434;28.338;2023-04-06T09:29:42;99374.47;;;9.41;100.00
26087;BME280;13851;43.434;28.338;2023-04-06T09:32:09;99077.28;;;8.10;100.00
26087;BME280;13851;43.434;28.338;2023-04-06T09:34:42;99401.88;;;10.30;100.00
26087;BME280;13851;43.434;28.338;2023-04-06T09:37:18;99461.56;;;9.97;100.00
26087;BME280;13851;43.434;28.338;2023-04-06T09:39:44;99313.13;;;8.76;100.00
26087;BME280;13851;43.434;28.338;2023-04-06T09:42:23;99383.53;;;9.42;100.00
26087;BME280;13851;43.434;28.338;2023-04-06T09:44:48;99399.34;;;9.31;100.00
26087;BME280;13851;43.434;28.338;2023-04-06T09:47:15;99455.41;;;9.65;100.00
26087;BME280;13851;43.434;28.338;2023-04-06T09:49:43;99414.63;;;9.41;100.00
26087;BME280;13851;43.434;28.338;2023-04-06T09:52:11;99048.75;;;7.14;100.00
26087;BME280;13851;43.434;28.338;2023-04-06T09:54:37;99350.06;;;8.64;100.00
26087;BME280;13851;43.434;28.338;2023-04-06T09:57:25;99434.97;;;8.77;100.00
26087;BME280;13851;43.434;28.338;2023-04-06T10:02:58;99394.06;;;8.46;100.00
26087;BME280;13851;43.434;28.338;2023-04-06T10:08:11;99036.25;;;6.35;100.00
26087;BME280;13851;43.434;28.338;2023-04-06T10:10:38;99316.97;;;7.82;100.00
26087;BME280;13851;43.434;28.338;2023-04-06T10:13:04;99394.78;;;8.40;100.00
26087;BME280;13851;43.434;28.338;2023-04-06T10:15:31;99419.44;;;8.16;100.00
26087;BME280;13851;43.434;28.338;2023-04-06T10:18:01;99379.31;;;8.24;100.00
26087;BME280;13851;43.434;28.338;2023-04-06T10:20:49;99097.59;;;6.45;100.00
26087;BME280;13851;43.434;28.338;2023-04-06T10:23:24;99383.44;;;8.20;100.00
26087;BME280;13851;43.434;28.338;2023-04-06T10:25:59;99296.47;;;7.55;100.00
26087;BME280;13851;43.434;28.338;2023-04-06T10:28:26;99394.81;;;8.24;100.00
26087;BME280;13851;43.434;28.338;2023-04-06T10:31:00;99322.63;;;7.72;100.00
26087;BME280;13851;43.434;28.338;2023-04-06T10:33:27;99381.06;;;8.17;100.00
26087;BME280;13851;43.434;28.338;2023-04-06T10:35:52;99342.34;;;7.82;100.00
26087;BME280;13851;43.434;28.338;2023-04-06T10:38:19;99382.16;;;8.00;100.00
26087;BME280;13851;43.434;28.338;2023-04-06T10:40:49;99395.41;;;8.11;100.00
26087;BME280;13851;43.434;28.338;2023-04-06T10:43:20;99138.28;;;6.78;100.00
26087;BME280;13851;43.434;28.338;2023-04-06T10:45:53;99390.88;;;8.34;100.00
26087;BME280;13851;43.434;28.338;2023-04-06T10:48:20;99335.75;;;8.08;100.00
26087;BME280;13851;43.434;28.338;2023-04-06T10:50:52;99275.41;;;8.03;100.00
26087;BME280;13851;43.434;28.338;2023-04-06T10:53:26;99384.44;;;8.81;100.00
26087;BME280;13851;43.434;28.338;2023-04-06T10:55:56;99401.97;;;8.87;100.00
26087;BME280;13851;43.434;28.338;2023-04-06T10:58:26;99366.25;;;9.11;100.00
26087;BME280;13851;43.434;28.338;2023-04-06T11:00:51;99414.09;;;9.45;100.00
26087;BME280;13851;43.434;28.338;2023-04-06T11:03:18;99385.69;;;8.94;100.00
26087;BME280;13851;43.434;28.338;2023-04-06T11:05:48;99004.22;;;7.07;100.00
26087;BME280;13851;43.434;28.338;2023-04-06T11:08:29;99392.56;;;9.27;100.00
26087;BME280;13851;43.434;28.338;2023-04-06T11:16:16;99398.00;;;9.95;100.00
26087;BME280;13851;43.434;28.338;2023-04-06T11:29:09;99380.66;;;8.82;100.00
26087;BME280;13851;43.434;28.338;2023-04-06T11:31:42;99371.22;;;9.08;100.00
26087;BME280;13851;43.434;28.338;2023-04-06T11:34:15;99374.16;;;8.83;100.00
26087;BME280;13851;43.434;28.338;2023-04-06T11:36:42;99322.84;;;8.56;100.00
26087;BME280;13851;43.434;28.338;2023-04-06T11:39:08;99379.19;;;8.95;100.00
26087;BME280;13851;43.434;28.338;2023-04-06T11:41:34;99317.97;;;8.43;100.00
26087;BME280;13851;43.434;28.338;2023-04-06T11:44:03;99345.59;;;9.09;100.00
26087;BME280;13851;43.434;28.338;2023-04-06T11:46:29;99303.25;;;8.75;100.00
26087;BME280;13851;43.434;28.338;2023-04-06T11:48:59;99362.88;;;8.87;100.00
26087;BME280;13851;43.434;28.338;2023-04-06T11:51:25;99342.13;;;8.54;100.00
26087;BME280;13851;43.434;28.338;2023-04-06T11:53:52;99289.22;;;8.10;100.00
26087;BME280;13851;43.434;28.338;2023-04-06T11:56:28;98993.97;;;6.55;100.00
26087;BME280;13851;43.434;28.338;2023-04-06T11:58:58;99330.75;;;8.51;100.00
26087;BME280;13851;43.434;28.338;2023-04-06T12:01:25;98967.25;;;6.28;100.00
26087;BME280;13851;43.434;28.338;2023-04-06T12:03:52;99285.00;;;7.99;100.00
26087;BME280;13851;43.434;28.338;2023-04-06T12:06:18;99295.03;;;7.75;100.00
26087;BME280;13851;43.434;28.338;2023-04-06T12:08:43;99327.63;;;8.23;100.00
26087;BME280;13851;43.434;28.338;2023-04-06T12:11:10;98958.94;;;6.21;100.00
26087;BME280;13851;43.434;28.338;2023-04-06T12:13:36;99041.78;;;6.81;100.00
26087;BME280;13851;43.434;28.338;2023-04-06T12:16:01;99293.88;;;8.55;100.00
26087;BME280;13851;43.434;28.338;2023-04-06T12:18:27;99317.78;;;8.91;100.00
26087;BME280;13851;43.434;28.338;2023-04-06T12:20:52;99280.53;;;8.75;100.00
26087;BME280;13851;43.434;28.338;2023-04-06T12:23:19;99327.88;;;9.05;100.00
26087;BME280;13851;43.434;28.338;2023-04-06T12:25:45;99354.97;;;9.29;100.00
26087;BME280;13851;43.434;28.338;2023-04-06T12:28:10;99151.06;;;8.31;100.00
26087;BME280;13851;43.434;28.338;2023-04-06T12:30:36;99362.06;;;9.68;100.00
26087;BME280;13851;43.434;28.338;2023-04-06T12:33:02;99379.13;;;9.85;100.00
26087;BME280;13851;43.434;28.338;2023-04-06T12:35:27;99259.50;;;9.57;100.00
26087;BME280;13851;43.434;28.338;2023-04-06T12:37:53;99330.50;;;10.02;100.00
26087;BME280;13851;43.434;28.338;2023-04-06T12:40:18;99083.69;;;8.17;100.00
26087;BME280;13851;43.434;28.338;2023-04-06T12:42:44;99354.41;;;9.93;100.00
26087;BME280;13851;43.434;28.338;2023-04-06T12:45:11;99364.59;;;10.29;100.00
26087;BME280;13851;43.434;28.338;2023-04-06T12:47:37;99347.31;;;10.13;100.00
26087;BME280;13851;43.434;28.338;2023-04-06T12:50:06;99346.72;;;10.18;100.00
26087;BME280;13851;43.434;28.338;2023-04-06T12:52:31;99017.72;;;8.14;100.00
26087;BME280;13851;43.434;28.338;2023-04-06T12:55:00;99132.09;;;8.38;100.00
26087;BME280;13851;43.434;28.338;2023-04-06T12:57:26;99007.91;;;7.75;100.00
26087;BME280;13851;43.434;28.338;2023-04-06T12:59:52;99349.06;;;9.70;100.00
26087;BME280;13851;43.434;28.338;2023-04-06T13:02:18;99101.81;;;8.48;100.00
26087;BME280;13851;43.434;28.338;2023-04-06T13:04:45;99337.06;;;10.22;100.00
26087;BME280;13851;43.434;28.338;2023-04-06T13:07:11;99401.66;;;10.16;100.00
26087;BME280;13851;43.434;28.338;2023-04-06T13:09:37;99354.41;;;9.93;100.00